Last 48 Hours

Top Stn/Summit - 11,053ft

15 Minute Data | America/Los_Angeles
as of 5/7/26 5:50 AM PDT
Date & Time Temp (°F) WindChill (°F) RH (%) Dew Pt (°F) Wet Bulb (°F) Wind Dir (°) Wind Spd (mph) Wind Gust (mph) Wind Gst Dir (°) Daily Min Temp (°F) Daily Max Temp (°F) Daily Max Wind (mph)
5/7/26 - 0545 37.9 33.9 27 7.0 29.0 SW | 226 2.7 7.7 SW | 226 37.0 39.4 33.2
5/7/26 - 0530 38.5 36.1 26 6.8 29.3 SW | 225 1.9 5.1 SW | 224 37.0 39.4 33.2
5/7/26 - 0515 38.5 - 29 8.4 29.7 SW | 224 0.2 1.2 SW | 224 37.0 39.3 33.2
5/7/26 - 0500 38.0 32.9 40 16.1 30.8 SW | 223 4.4 8.9 SW | 223 37.0 38.2 33.2
5/7/26 - 0445 37.9 30.6 42 16.8 30.9 SW | 223 9.7 12.4 SW | 223 37.0 38.0 33.2
5/7/26 - 0430 37.8 30.4 44 17.9 31.1 SW | 222 9.4 13.0 SW | 222 37.0 38.0 33.2
5/7/26 - 0415 37.6 29.2 47 19.3 31.4 SW | 222 12.2 15.2 SW | 222 37.0 37.7 33.2
5/7/26 - 0400 37.4 29.3 50 20.6 31.6 SW | 222 11.0 14.6 SW | 222 37.0 37.7 33.2
5/7/26 - 0345 37.4 28.8 51 20.8 31.6 SW | 221 12.0 15.8 SW | 221 37.0 37.7 33.2
5/7/26 - 0330 37.4 28.8 50 20.6 31.6 SW | 221 11.8 16.7 SW | 220 37.0 37.7 33.2
5/7/26 - 0315 37.4 28.0 51 21.0 31.7 SW | 220 14.7 18.6 SW | 220 37.0 37.7 33.2
5/7/26 - 0300 37.4 27.0 51 20.8 31.6 SW | 220 17.9 23.6 SW | 220 37.0 37.7 33.2
5/7/26 - 0245 37.4 26.2 52 21.4 31.8 SW | 220 20.4 27.0 SW | 220 37.0 37.7 33.2
5/7/26 - 0230 37.6 26.0 52 21.7 31.9 SW | 220 22.8 28.3 SW | 220 37.0 37.7 33.2
5/7/26 - 0215 37.4 25.5 52 21.3 31.7 SW | 220 23.6 30.4 SW | 220 37.0 37.6 33.2
5/7/26 - 0200 37.2 24.9 51 20.9 31.5 SW | 221 26.3 31.7 SW | 221 37.0 37.6 33.2
5/7/26 - 0145 37.2 24.8 51 20.8 31.5 SW | 221 26.3 32.8 SW | 221 37.0 37.6 33.2
5/7/26 - 0130 37.1 24.6 51 20.6 31.4 SW | 222 26.7 33.2 SW | 222 37.0 37.6 33.2
5/7/26 - 0115 37.3 24.8 51 20.7 31.5 SW | 222 26.9 33.2 SW | 222 37.0 37.6 33.2
5/7/26 - 0100 37.6 25.2 50 20.6 31.7 SW | 223 27.3 33.9 SW | 223 27.9 42.2 50.6
5/7/26 - 0045 37.5 25.2 51 21.0 31.7 SW | 223 25.8 33.1 SW | 223 27.9 42.2 50.6
5/7/26 - 0030 37.4 25.4 50 20.7 31.6 SW | 223 24.3 30.7 SW | 223 27.9 42.2 50.6
5/7/26 - 0015 37.3 25.4 50 20.3 31.4 SW | 223 24.1 30.1 SW | 223 27.9 42.2 50.6
5/7/26 - 0000 37.2 25.0 50 20.5 31.4 SW | 222 24.7 31.3 SW | 222 27.9 42.2 50.6
5/6/26 - 2345 37.1 24.8 51 20.7 31.4 SW | 223 24.8 32.1 SW | 223 27.9 42.2 50.6
5/6/26 - 2330 37.2 24.5 52 21.0 31.5 SW | 223 26.7 34.5 SW | 223 27.9 42.2 50.6
5/6/26 - 2315 37.4 25.1 52 21.3 31.7 SW | 224 25.4 32.1 SW | 224 27.9 42.2 50.6
5/6/26 - 2300 37.5 25.2 54 22.2 32.0 SW | 224 25.1 32.8 SW | 224 27.9 42.2 50.6
5/6/26 - 2245 37.6 25.7 55 23.0 32.4 SW | 224 24.4 31.1 SW | 224 27.9 42.2 50.6
5/6/26 - 2230 38.0 26.9 56 23.7 32.8 SW | 225 21.0 27.6 SW | 224 27.9 42.2 50.6
5/6/26 - 2215 38.5 27.8 54 23.3 33.0 SW | 225 20.0 25.6 SW | 225 27.9 42.2 50.6
5/6/26 - 2200 38.6 28.4 53 23.1 33.0 SW | 225 18.7 23.6 SW | 225 27.9 42.2 50.6
5/6/26 - 2145 38.8 28.6 52 22.7 33.0 SW | 225 18.8 23.7 SW | 225 27.9 42.2 50.6
5/6/26 - 2130 38.9 28.4 51 22.4 32.9 SW | 225 19.6 25.6 SW | 224 27.9 42.2 50.6
5/6/26 - 2115 39.2 29.3 51 22.5 33.2 SW | 224 17.7 23.6 SW | 224 27.9 42.2 50.6
5/6/26 - 2100 39.4 29.8 51 22.7 33.3 SW | 224 16.8 22.5 SW | 224 27.9 42.2 50.6
5/6/26 - 2045 39.7 30.3 49 22.4 33.4 SW | 224 16.0 22.3 SW | 224 27.9 42.2 50.6
5/6/26 - 2030 40.1 29.9 48 22.1 33.6 SW | 224 19.7 26.9 SW | 224 27.9 42.2 50.6
5/6/26 - 2015 40.1 29.7 48 22.2 33.6 SW | 224 20.9 27.6 SW | 224 27.9 42.2 50.6
5/6/26 - 2000 40.4 30.0 48 22.0 33.7 SW | 223 20.9 27.1 SW | 223 27.9 42.2 50.6
5/6/26 - 1945 40.7 30.7 46 21.5 33.8 SW | 223 19.6 26.5 SW | 223 27.9 42.2 50.6
5/6/26 - 1930 41.0 31.3 45 21.4 33.9 SW | 223 18.5 25.8 SW | 223 27.9 42.2 50.6
5/6/26 - 1915 41.2 31.7 48 23.1 34.5 SW | 223 17.6 25.3 SW | 222 27.9 42.2 50.6
5/6/26 - 1900 41.4 31.2 51 24.4 35.0 SW | 222 21.7 29.1 SW | 222 27.9 42.2 50.6
5/6/26 - 1845 41.6 31.7 51 25.0 35.3 SW | 222 19.7 28.6 SW | 222 27.9 42.2 50.6
5/6/26 - 1830 41.7 31.3 52 25.2 35.4 SW | 222 19.4 33.6 SW | 222 27.9 42.2 50.6
5/6/26 - 1815 41.9 32.5 52 25.6 35.6 SW | 222 17.6 26.7 SW | 222 27.9 42.2 50.6
5/6/26 - 1800 41.8 31.2 53 25.7 35.6 SW | 222 21.7 33.6 SW | 222 27.9 42.2 50.6
5/6/26 - 1745 41.8 31.5 53 26.0 35.7 SW | 222 20.4 33.1 SW | 222 27.9 42.2 50.6
5/6/26 - 1730 41.7 31.0 53 25.8 35.6 SW | 222 23.1 34.7 SW | 222 27.9 42.2 50.6
5/6/26 - 1715 41.8 31.6 53 26.1 35.7 SW | 221 20.3 31.3 SW | 222 27.9 42.2 50.6
5/6/26 - 1700 41.6 31.2 56 26.9 35.8 SW | 221 20.8 32.4 SW | 221 27.9 42.0 50.6
5/6/26 - 1645 41.6 32.3 54 26.3 35.7 SW | 221 16.3 25.8 SW | 221 27.9 41.9 50.6
5/6/26 - 1630 41.4 31.2 55 26.4 35.6 SW | 220 20.8 30.4 SW | 219 27.9 41.7 50.6
5/6/26 - 1615 41.1 31.0 55 26.3 35.4 SW | 219 19.7 29.0 SW | 219 27.9 41.4 50.6
5/6/26 - 1600 41.0 30.0 55 26.1 35.3 SW | 217 20.7 37.2 SW | 218 27.9 41.3 50.6
5/6/26 - 1545 40.5 30.0 56 26.2 35.0 SW | 217 17.9 32.0 SW | 219 27.9 41.0 50.6
5/6/26 - 1530 40.3 30.7 58 26.6 35.0 SW | 219 15.8 25.8 SW | 219 27.9 40.6 50.6
5/6/26 - 1515 40.2 29.2 59 26.9 35.1 SW | 217 22.3 33.6 SW | 217 27.9 40.4 50.6
5/6/26 - 1500 39.7 28.5 61 27.2 34.9 SW | 218 22.4 32.5 SW | 218 27.9 40.2 50.6
5/6/26 - 1445 39.4 27.6 62 27.4 34.8 SW | 217 23.8 36.8 SW | 218 27.9 39.6 50.6
5/6/26 - 1430 38.9 26.9 64 27.8 34.6 SW | 216 23.7 37.3 SW | 216 27.9 39.3 50.6
5/6/26 - 1415 38.7 26.6 64 27.6 34.4 SSW | 210 24.6 36.0 SSW | 211 27.9 39.0 50.6
5/6/26 - 1400 38.4 25.7 65 27.8 34.3 SSE | 152 25.8 40.1 NNW | 338 27.9 38.6 50.6
5/6/26 - 1345 38.0 24.9 65 27.4 33.9 SW | 233 27.7 42.0 SW | 217 27.9 38.4 50.6
5/6/26 - 1330 37.6 24.4 67 27.7 33.8 SW | 214 27.6 40.8 SW | 214 27.9 37.9 50.6
5/6/26 - 1315 37.3 24.3 68 27.7 33.6 SW | 216 27.8 38.3 SW | 216 27.9 37.6 50.6
5/6/26 - 1300 37.1 24.1 66 27.0 33.2 SW | 216 26.3 38.1 SW | 216 27.9 37.4 50.6
5/6/26 - 1245 37.0 23.8 66 26.8 33.1 SW | 216 27.4 38.5 SW | 216 27.9 37.2 50.6
5/6/26 - 1230 36.3 23.1 67 26.6 32.7 SW | 214 25.4 38.3 SW | 214 27.9 36.7 50.6
5/6/26 - 1215 36.2 22.6 67 26.3 32.5 SW | 215 26.4 40.6 SW | 214 27.9 36.5 50.6
5/6/26 - 1200 36.0 21.8 68 26.3 32.3 SSW | 200 28.9 45.0 S | 184 27.9 36.3 50.6
5/6/26 - 1145 35.7 21.7 68 26.3 32.2 ESE | 114 29.7 41.2 NE | 47 27.9 35.9 50.6
5/6/26 - 1130 35.5 20.5 69 26.3 32.0 NNW | 345 34.0 47.9 N | 350 27.9 35.8 50.6
5/6/26 - 1115 35.0 19.5 70 26.4 31.8 N | 356 35.9 50.6 NW | 323 27.9 35.3 50.6
5/6/26 - 1100 34.7 19.6 72 26.8 31.7 N | 350 34.3 44.9 E | 97 27.9 35.1 48.1
5/6/26 - 1045 34.3 19.3 75 27.1 31.6 NNW | 340 33.5 43.6 NNW | 342 27.9 34.5 48.1
5/6/26 - 1030 34.3 18.9 75 27.1 31.6 N | 3 33.2 48.1 NE | 36 27.9 34.5 48.1
5/6/26 - 1015 33.6 18.0 79 27.9 31.5 N | 359 33.0 47.5 NNE | 30 27.9 34.1 47.5
5/6/26 - 1000 33.3 17.9 80 28.0 31.3 N | 0 32.4 44.1 N | 0 27.9 33.6 46.8
5/6/26 - 0945 33.4 17.5 81 28.2 31.4 N | 0 35.4 46.8 N | 0 27.9 33.6 46.8
5/6/26 - 0930 33.2 18.0 78 27.2 30.9 NNW | 348 31.5 42.5 N | 350 27.9 33.4 45.3
5/6/26 - 0915 32.8 18.2 77 26.4 30.4 N | 350 27.8 37.7 N | 350 27.9 33.0 45.3
5/6/26 - 0900 32.7 17.7 77 26.4 30.3 N | 350 29.6 39.2 N | 350 27.9 33.0 45.3
5/6/26 - 0845 32.4 17.3 79 26.6 30.2 N | 350 29.6 38.8 N | 350 27.9 32.6 45.3
5/6/26 - 0830 32.1 16.8 79 26.2 29.9 N | 350 30.8 38.5 N | 350 27.9 32.2 45.3
5/6/26 - 0815 31.8 16.4 81 26.6 29.9 N | 350 31.1 39.5 N | 350 27.9 32.0 45.3
5/6/26 - 0800 31.6 16.1 82 26.7 29.8 N | 350 31.0 39.3 N | 350 27.9 31.8 45.3
5/6/26 - 0745 31.1 15.6 82 26.4 29.3 N | 350 30.7 37.1 N | 350 27.9 31.5 45.3
5/6/26 - 0730 31.0 15.2 82 26.2 29.2 N | 350 30.8 39.6 N | 350 27.9 31.2 45.3
5/6/26 - 0715 30.9 15.1 82 26.0 29.0 N | 350 31.0 38.7 N | 350 27.9 31.1 45.3
5/6/26 - 0700 30.5 14.8 83 25.8 28.8 N | 350 30.1 37.6 N | 350 27.9 30.8 45.3
5/6/26 - 0645 30.1 14.1 84 25.9 28.5 N | 350 30.8 38.4 N | 350 27.9 30.4 45.3
5/6/26 - 0630 29.7 13.5 86 26.0 28.3 N | 350 31.1 38.8 N | 350 27.9 29.9 45.3
5/6/26 - 0615 29.2 12.7 88 26.1 28.0 N | 350 31.2 38.8 N | 350 27.9 29.3 45.3
5/6/26 - 0600 28.9 12.8 91 26.7 28.0 N | 350 29.8 36.3 N | 350 27.9 29.0 45.3
5/6/26 - 0545 28.7 12.5 97 27.9 28.3 N | 350 29.6 36.2 N | 350 27.9 28.9 45.3
5/6/26 - 0530 28.4 11.9 100 28.2 28.2 N | 350 30.1 37.4 N | 350 27.9 28.5 45.3
5/6/26 - 0515 28.2 11.4 100 28.2 28.1 N | 350 31.2 38.3 N | 350 27.9 28.4 45.3
5/6/26 - 0500 28.2 11.3 100 28.2 28.1 N | 350 31.9 39.9 N | 350 27.9 28.4 45.3
5/6/26 - 0445 28.2 10.6 100 28.2 28.0 N | 350 34.4 44.1 N | 350 27.9 28.4 45.3
5/6/26 - 0430 28.1 10.4 100 28.1 27.9 N | 350 34.7 44.1 N | 350 27.9 28.4 45.3
5/6/26 - 0415 28.0 10.8 100 28.0 27.9 N | 350 33.4 40.8 N | 350 27.9 28.4 45.3
5/6/26 - 0400 28.0 10.6 100 28.0 27.9 N | 350 34.4 42.2 N | 350 27.9 28.4 45.3
5/6/26 - 0345 28.1 10.5 100 28.1 27.9 N | 350 35.0 42.9 N | 350 27.9 28.4 45.3
5/6/26 - 0330 28.1 10.4 100 28.1 28.0 N | 350 36.1 43.9 N | 350 28.0 28.4 45.3
5/6/26 - 0315 28.1 10.2 100 28.1 28.0 N | 350 36.7 45.3 N | 350 28.0 28.4 45.3
5/6/26 - 0300 28.1 10.6 100 28.1 28.0 N | 350 35.6 42.6 N | 350 28.0 28.4 42.6
5/6/26 - 0245 28.1 10.8 100 28.1 28.0 N | 350 33.8 41.6 N | 350 28.0 28.4 42.2
5/6/26 - 0230 28.2 11.2 100 28.2 28.1 N | 350 33.0 39.4 N | 350 28.0 28.4 42.2
5/6/26 - 0215 28.2 11.2 100 28.2 28.1 N | 350 32.7 40.4 N | 350 28.0 28.4 42.2
5/6/26 - 0200 28.4 11.2 100 28.4 28.2 N | 350 33.5 41.5 N | 350 28.0 28.4 42.2
5/6/26 - 0145 28.3 11.0 100 28.3 28.2 N | 350 33.3 42.2 N | 350 28.0 28.4 42.2
5/6/26 - 0130 28.1 11.1 100 28.1 28.0 N | 350 32.6 39.7 N | 350 28.0 28.3 42.1
5/6/26 - 0115 28.1 10.8 100 28.1 28.0 N | 350 32.7 42.1 N | 350 28.0 28.2 42.1
5/6/26 - 0100 28.2 10.4 100 28.2 28.0 N | 350 35.4 45.2 N | 350 22.5 28.7 52.6
5/6/26 - 0045 28.1 10.0 100 28.1 28.0 N | 350 35.4 49.0 N | 350 22.5 28.7 52.6
5/6/26 - 0030 28.0 10.9 100 28.0 27.9 N | 350 32.3 40.2 N | 350 22.5 28.7 52.6
5/6/26 - 0015 27.7 10.3 100 27.7 27.6 N | 350 33.6 40.9 N | 350 22.5 28.7 52.6
5/6/26 - 0000 27.6 10.3 100 27.6 27.4 N | 350 32.8 39.9 N | 350 22.5 28.7 52.6
5/5/26 - 2345 27.7 9.5 100 27.7 27.6 N | 350 37.7 46.1 N | 350 22.5 28.7 52.6
5/5/26 - 2330 27.8 9.2 100 27.8 27.7 N | 350 39.8 50.0 N | 350 22.5 28.7 52.6
5/5/26 - 2315 27.8 9.5 100 27.8 27.7 N | 350 39.0 47.0 N | 350 22.5 28.7 52.6
5/5/26 - 2300 27.8 9.2 100 27.8 27.7 N | 350 38.4 51.0 N | 350 22.5 28.7 52.6
5/5/26 - 2245 27.7 9.3 100 27.7 27.6 N | 350 38.6 47.5 N | 350 22.5 28.7 52.6
5/5/26 - 2230 27.7 9.2 100 27.7 27.5 N | 350 38.6 48.0 N | 350 22.5 28.7 52.6
5/5/26 - 2215 27.7 9.1 100 27.7 27.5 N | 350 38.6 49.6 N | 350 22.5 28.7 52.6
5/5/26 - 2200 27.7 9.2 100 27.7 27.6 N | 350 38.2 49.6 N | 350 22.5 28.7 52.6
5/5/26 - 2145 27.9 9.6 100 27.9 27.8 N | 350 38.2 48.1 N | 350 22.5 28.7 52.6
5/5/26 - 2130 28.1 10.0 100 28.1 28.0 N | 350 37.7 46.1 N | 350 22.5 28.7 52.6
5/5/26 - 2115 28.5 10.6 100 28.5 28.3 N | 350 36.8 46.3 N | 350 22.5 28.7 52.6
5/5/26 - 2100 28.5 11.0 100 28.5 28.4 N | 350 35.8 43.7 N | 350 22.5 28.7 52.6
5/5/26 - 2045 28.6 11.0 100 28.6 28.5 N | 350 35.8 44.4 N | 350 22.5 28.7 52.6
5/5/26 - 2030 28.5 10.7 100 28.5 28.4 N | 350 36.0 47.1 N | 350 22.5 28.6 52.6
5/5/26 - 2015 28.4 10.1 100 28.4 28.3 N | 350 35.5 52.6 N | 350 22.5 28.5 52.6
5/5/26 - 2000 28.1 10.6 100 28.1 28.0 N | 350 33.5 43.8 N | 350 22.5 28.3 46.6
5/5/26 - 1945 28.0 10.6 100 28.0 27.8 N | 350 31.7 43.7 N | 350 22.5 28.0 46.6
5/5/26 - 1930 27.8 10.0 100 27.8 27.6 N | 350 32.3 46.6 N | 350 22.5 28.0 46.6
5/5/26 - 1915 27.4 10.4 100 27.4 27.3 N | 350 29.6 39.8 N | 350 22.5 28.0 45.3
5/5/26 - 1900 26.7 8.9 100 26.7 26.6 N | 350 29.1 45.2 N | 350 22.5 28.0 45.3
5/5/26 - 1845 26.5 9.0 100 26.4 26.3 N | 350 28.3 42.3 N | 350 22.5 28.0 45.3
5/5/26 - 1830 26.7 9.9 100 26.7 26.6 N | 350 27.2 37.0 N | 350 22.5 28.0 45.3
5/5/26 - 1815 27.1 11.8 100 27.1 27.0 N | 350 21.9 31.3 N | 350 22.5 28.0 45.3
5/5/26 - 1800 27.5 12.5 100 27.5 27.4 N | 350 21.3 30.0 N | 350 22.5 28.0 45.3
5/5/26 - 1745 27.7 13.3 100 27.7 27.6 N | 350 19.7 28.1 N | 350 22.5 28.0 45.3
5/5/26 - 1730 27.5 13.8 100 27.5 27.4 N | 350 17.9 24.2 N | 350 22.5 27.9 45.3
5/5/26 - 1715 27.6 13.6 100 27.6 27.4 N | 350 18.7 25.1 N | 350 22.5 27.9 45.3
5/5/26 - 1700 27.2 13.8 100 27.2 27.1 N | 350 16.8 22.8 N | 350 22.5 27.4 45.3
5/5/26 - 1645 27.1 12.9 100 27.1 26.9 N | 350 17.1 26.9 N | 350 22.5 27.4 45.3
5/5/26 - 1630 26.7 11.9 100 26.7 26.6 N | 350 18.2 29.9 N | 350 22.5 27.4 45.3
5/5/26 - 1615 26.1 11.9 100 26.1 26.0 N | 350 17.4 25.0 N | 350 22.5 27.4 45.3
5/5/26 - 1600 25.3 10.4 99 25.2 25.1 N | 350 19.1 26.5 N | 350 22.5 27.4 45.3
5/5/26 - 1545 25.4 10.3 99 25.2 25.2 N | 350 19.9 26.9 N | 350 22.5 27.4 45.3
5/5/26 - 1530 26.1 9.2 100 26.0 25.9 N | 350 24.2 39.1 N | 350 22.5 27.4 45.3
5/5/26 - 1515 26.5 8.6 100 26.5 26.4 N | 350 29.7 45.3 N | 350 22.5 27.4 45.3
5/5/26 - 1500 27.2 10.5 100 27.2 27.1 N | 349 25.0 40.3 N | 350 22.5 27.4 44.6
5/5/26 - 1445 26.6 11.4 100 26.5 26.4 N | 350 20.6 29.9 N | 350 22.5 27.3 44.6
5/5/26 - 1430 26.9 11.2 100 26.9 26.8 N | 350 23.6 31.6 N | 350 22.5 27.3 44.6
5/5/26 - 1415 26.8 10.5 100 26.8 26.6 N | 350 23.8 36.1 N | 350 22.5 27.3 44.6
5/5/26 - 1400 27.0 10.9 100 27.0 26.9 N | 350 24.9 34.7 N | 350 22.5 27.3 44.6
5/5/26 - 1345 26.6 9.2 100 26.5 26.4 N | 350 28.4 41.2 N | 350 22.5 26.9 44.6
5/5/26 - 1330 26.2 8.2 100 26.1 26.0 N | 350 30.2 44.6 N | 350 22.5 26.4 44.6
5/5/26 - 1315 25.9 8.5 99 25.8 25.7 N | 350 28.9 38.4 N | 350 22.5 26.2 43.7
5/5/26 - 1300 25.8 7.8 99 25.7 25.7 N | 350 30.7 43.7 N | 350 22.5 26.1 43.7
5/5/26 - 1245 25.8 7.8 99 25.6 25.6 N | 350 30.8 42.5 N | 350 22.5 26.0 42.5
5/5/26 - 1230 25.8 7.9 100 25.7 25.7 N | 350 30.7 41.7 N | 350 22.5 26.0 41.7
5/5/26 - 1215 25.2 7.9 99 25.0 25.0 N | 350 27.3 37.1 N | 350 22.5 25.8 37.1
5/5/26 - 1200 25.0 7.7 99 24.8 24.8 N | 350 26.3 37.0 N | 350 22.5 25.4 37.0
5/5/26 - 1145 25.0 8.1 99 24.7 24.8 N | 350 23.8 36.2 N | 350 22.5 25.4 36.2
5/5/26 - 1130 24.8 7.9 99 24.5 24.6 N | 349 24.4 34.8 N | 350 22.5 25.0 34.8
5/5/26 - 1115 24.8 8.4 99 24.5 24.5 N | 350 22.9 31.4 N | 350 22.5 25.0 33.5
5/5/26 - 1100 24.6 8.0 99 24.2 24.3 N | 350 22.8 32.9 N | 350 22.5 24.7 33.5
5/5/26 - 1045 24.4 7.7 99 24.1 24.2 N | 350 23.3 33.4 N | 350 22.5 24.7 33.5
5/5/26 - 1030 24.3 7.8 98 24.0 24.0 N | 349 22.2 32.8 N | 350 22.5 24.4 33.5
5/5/26 - 1015 24.3 8.1 99 23.9 24.0 N | 350 21.8 29.9 N | 350 22.5 24.4 33.5
5/5/26 - 1000 24.1 7.7 98 23.7 23.8 N | 350 21.8 31.1 N | 350 22.5 24.4 33.5
5/5/26 - 0945 23.8 7.1 98 23.4 23.5 N | 350 23.3 31.1 N | 350 22.5 24.3 33.5
5/5/26 - 0930 23.6 6.6 98 23.2 23.4 N | 350 23.5 33.5 N | 350 22.5 24.3 33.5
5/5/26 - 0915 23.6 7.0 98 23.2 23.4 NNW | 347 20.3 33.5 N | 350 22.5 24.3 33.5
5/5/26 - 0900 23.5 10.0 98 23.1 23.2 N | 350 12.3 21.5 N | 350 22.5 24.3 21.5
5/5/26 - 0845 23.5 12.4 98 23.0 23.2 N | 350 2.9 19.9 N | 350 22.5 24.3 19.9
5/5/26 - 0830 23.8 13.8 98 23.4 23.5 N | 350 5.2 14.1 N | 350 22.5 24.3 17.0
5/5/26 - 0815 23.9 - 98 23.5 23.6 N | 350 0.9 4.2 N | 350 22.5 24.3 17.0
5/5/26 - 0800 23.7 16.5 98 23.3 23.5 N | 350 1.5 10.2 N | 350 22.5 23.9 17.0
5/5/26 - 0745 23.6 16.2 98 23.2 23.3 N | 350 2.0 10.2 N | 350 22.5 23.8 17.0
5/5/26 - 0730 23.2 18.1 98 22.8 23.0 N | 350 2.3 5.4 N | 350 22.5 23.7 17.0
5/5/26 - 0715 22.9 19.0 98 22.4 22.6 N | 350 2.2 3.8 N | 350 22.5 23.7 17.0
5/5/26 - 0700 22.9 17.4 98 22.4 22.6 N | 350 2.5 5.6 N | 350 22.5 23.7 17.0
5/5/26 - 0645 22.7 15.8 98 22.1 22.4 N | 350 4.3 6.3 N | 350 22.5 23.7 17.0
5/5/26 - 0630 22.6 15.6 98 22.0 22.2 N | 350 4.4 6.2 N | 350 22.5 23.7 17.0
5/5/26 - 0615 22.5 12.6 98 21.9 22.2 N | 350 7.7 10.2 N | 350 22.5 23.7 17.0
5/5/26 - 0600 22.6 13.2 98 22.0 22.3 N | 350 7.0 9.5 N | 350 22.5 23.7 17.0
5/5/26 - 0545 22.6 14.3 98 22.0 22.3 N | 350 4.8 8.9 N | 350 22.5 23.7 17.0
Max 41.9 36.1 100 28.6 35.8 - 39.8 52.6 - 37.0 42.2 52.6
Avg 31.8 18.0 80 25.0 29.3 - 24.4 33.3 - - - -
Min 22.5 6.6 26 6.8 22.2 - 0.2 1.2 - 22.5 23.7 17.0